sensor_id;sensor_type;location;lat;lon;timestamp;P1;durP1;ratioP1;P2;durP2;ratioP2
12962;SDS011;6546;49.882;8.666;2022-10-03T00:01:57;17.73;;;12.30;;
12962;SDS011;6546;49.882;8.666;2022-10-03T00:04:43;17.33;;;12.83;;
12962;SDS011;6546;49.882;8.666;2022-10-03T00:07:29;19.40;;;13.50;;
12962;SDS011;6546;49.882;8.666;2022-10-03T00:10:11;17.80;;;11.57;;
12962;SDS011;6546;49.882;8.666;2022-10-03T00:12:57;16.40;;;11.60;;
12962;SDS011;6546;49.882;8.666;2022-10-03T00:15:33;15.83;;;11.93;;
12962;SDS011;6546;49.882;8.666;2022-10-03T00:18:09;19.30;;;12.10;;
12962;SDS011;6546;49.882;8.666;2022-10-03T00:20:47;18.90;;;12.67;;
12962;SDS011;6546;49.882;8.666;2022-10-03T00:23:27;17.17;;;12.10;;
12962;SDS011;6546;49.882;8.666;2022-10-03T00:26:04;17.43;;;11.40;;
12962;SDS011;6546;49.882;8.666;2022-10-03T00:29:04;17.27;;;12.30;;
12962;SDS011;6546;49.882;8.666;2022-10-03T00:31:50;17.70;;;11.50;;
12962;SDS011;6546;49.882;8.666;2022-10-03T00:34:26;15.77;;;11.63;;
12962;SDS011;6546;49.882;8.666;2022-10-03T00:37:08;18.77;;;12.13;;
12962;SDS011;6546;49.882;8.666;2022-10-03T00:39:52;16.07;;;12.07;;
12962;SDS011;6546;49.882;8.666;2022-10-03T00:42:53;18.97;;;12.50;;
12962;SDS011;6546;49.882;8.666;2022-10-03T00:45:52;16.67;;;12.23;;
12962;SDS011;6546;49.882;8.666;2022-10-03T00:51:33;19.33;;;12.40;;
12962;SDS011;6546;49.882;8.666;2022-10-03T00:54:15;15.80;;;11.93;;
12962;SDS011;6546;49.882;8.666;2022-10-03T00:57:04;15.13;;;11.90;;
12962;SDS011;6546;49.882;8.666;2022-10-03T00:59:47;16.27;;;10.23;;
12962;SDS011;6546;49.882;8.666;2022-10-03T01:02:36;16.60;;;11.83;;
12962;SDS011;6546;49.882;8.666;2022-10-03T01:05:27;19.53;;;12.07;;
12962;SDS011;6546;49.882;8.666;2022-10-03T01:08:07;17.23;;;11.67;;
12962;SDS011;6546;49.882;8.666;2022-10-03T01:10:53;18.30;;;12.23;;
12962;SDS011;6546;49.882;8.666;2022-10-03T01:13:34;17.17;;;12.63;;
12962;SDS011;6546;49.882;8.666;2022-10-03T01:16:11;16.43;;;11.87;;
12962;SDS011;6546;49.882;8.666;2022-10-03T01:18:54;16.40;;;11.93;;
12962;SDS011;6546;49.882;8.666;2022-10-03T01:21:33;19.67;;;12.50;;
12962;SDS011;6546;49.882;8.666;2022-10-03T01:24:24;19.23;;;12.20;;
12962;SDS011;6546;49.882;8.666;2022-10-03T01:27:07;15.30;;;11.83;;
12962;SDS011;6546;49.882;8.666;2022-10-03T01:29:42;14.60;;;12.00;;
12962;SDS011;6546;49.882;8.666;2022-10-03T01:32:32;16.87;;;12.53;;
12962;SDS011;6546;49.882;8.666;2022-10-03T01:35:13;17.90;;;12.77;;
12962;SDS011;6546;49.882;8.666;2022-10-03T01:37:47;18.13;;;12.67;;
12962;SDS011;6546;49.882;8.666;2022-10-03T01:40:24;19.33;;;12.87;;
12962;SDS011;6546;49.882;8.666;2022-10-03T01:42:57;18.77;;;12.40;;
12962;SDS011;6546;49.882;8.666;2022-10-03T01:45:39;19.67;;;12.57;;
12962;SDS011;6546;49.882;8.666;2022-10-03T01:48:13;17.80;;;12.43;;
12962;SDS011;6546;49.882;8.666;2022-10-03T01:50:49;19.63;;;13.43;;
12962;SDS011;6546;49.882;8.666;2022-10-03T01:53:25;17.37;;;12.30;;
12962;SDS011;6546;49.882;8.666;2022-10-03T01:56:02;18.57;;;12.90;;
12962;SDS011;6546;49.882;8.666;2022-10-03T01:58:36;17.00;;;12.37;;
12962;SDS011;6546;49.882;8.666;2022-10-03T02:01:18;15.93;;;12.37;;
12962;SDS011;6546;49.882;8.666;2022-10-03T02:03:52;15.93;;;12.53;;
12962;SDS011;6546;49.882;8.666;2022-10-03T02:06:24;17.07;;;11.80;;
12962;SDS011;6546;49.882;8.666;2022-10-03T02:08:59;17.57;;;13.27;;
12962;SDS011;6546;49.882;8.666;2022-10-03T02:11:33;17.87;;;12.07;;
12962;SDS011;6546;49.882;8.666;2022-10-03T02:14:06;17.60;;;12.67;;
12962;SDS011;6546;49.882;8.666;2022-10-03T02:16:44;21.87;;;13.90;;
12962;SDS011;6546;49.882;8.666;2022-10-03T02:19:23;20.20;;;13.60;;
12962;SDS011;6546;49.882;8.666;2022-10-03T02:21:54;20.40;;;13.90;;
12962;SDS011;6546;49.882;8.666;2022-10-03T02:24:40;20.67;;;12.80;;
12962;SDS011;6546;49.882;8.666;2022-10-03T02:30:18;19.60;;;12.47;;
12962;SDS011;6546;49.882;8.666;2022-10-03T02:36:14;19.53;;;14.07;;
12962;SDS011;6546;49.882;8.666;2022-10-03T02:39:04;17.23;;;13.13;;
12962;SDS011;6546;49.882;8.666;2022-10-03T02:48:03;16.70;;;12.07;;
12962;SDS011;6546;49.882;8.666;2022-10-03T02:59:55;17.93;;;12.40;;
12962;SDS011;6546;49.882;8.666;2022-10-03T03:02:49;18.90;;;12.83;;
12962;SDS011;6546;49.882;8.666;2022-10-03T03:05:43;17.97;;;13.17;;
12962;SDS011;6546;49.882;8.666;2022-10-03T03:08:48;17.73;;;12.67;;
12962;SDS011;6546;49.882;8.666;2022-10-03T03:11:38;16.07;;;11.33;;
12962;SDS011;6546;49.882;8.666;2022-10-03T03:17:25;20.10;;;13.63;;
12962;SDS011;6546;49.882;8.666;2022-10-03T03:23:08;17.53;;;12.20;;
12962;SDS011;6546;49.882;8.666;2022-10-03T03:25:59;14.77;;;11.60;;
12962;SDS011;6546;49.882;8.666;2022-10-03T03:28:38;18.77;;;12.57;;
12962;SDS011;6546;49.882;8.666;2022-10-03T03:31:13;17.70;;;13.30;;
12962;SDS011;6546;49.882;8.666;2022-10-03T03:33:50;18.30;;;13.37;;
12962;SDS011;6546;49.882;8.666;2022-10-03T03:36:26;16.07;;;12.03;;
12962;SDS011;6546;49.882;8.666;2022-10-03T03:39:02;17.47;;;13.50;;
12962;SDS011;6546;49.882;8.666;2022-10-03T03:41:42;18.10;;;14.23;;
12962;SDS011;6546;49.882;8.666;2022-10-03T03:44:23;18.20;;;13.43;;
12962;SDS011;6546;49.882;8.666;2022-10-03T03:47:13;16.20;;;13.20;;
12962;SDS011;6546;49.882;8.666;2022-10-03T03:50:06;17.93;;;13.80;;
12962;SDS011;6546;49.882;8.666;2022-10-03T03:52:49;21.87;;;13.50;;
12962;SDS011;6546;49.882;8.666;2022-10-03T03:55:32;19.60;;;13.83;;
12962;SDS011;6546;49.882;8.666;2022-10-03T03:58:22;20.67;;;14.10;;
12962;SDS011;6546;49.882;8.666;2022-10-03T04:04:18;15.47;;;11.63;;
12962;SDS011;6546;49.882;8.666;2022-10-03T04:07:00;16.67;;;12.63;;
12962;SDS011;6546;49.882;8.666;2022-10-03T04:09:44;17.70;;;12.83;;
12962;SDS011;6546;49.882;8.666;2022-10-03T04:12:22;20.53;;;12.83;;
12962;SDS011;6546;49.882;8.666;2022-10-03T04:15:03;18.07;;;11.93;;
12962;SDS011;6546;49.882;8.666;2022-10-03T04:17:42;19.70;;;13.73;;
12962;SDS011;6546;49.882;8.666;2022-10-03T04:20:39;17.87;;;12.83;;
12962;SDS011;6546;49.882;8.666;2022-10-03T04:23:24;17.73;;;12.23;;
12962;SDS011;6546;49.882;8.666;2022-10-03T04:26:15;15.77;;;11.80;;
12962;SDS011;6546;49.882;8.666;2022-10-03T04:29:03;18.13;;;11.97;;
12962;SDS011;6546;49.882;8.666;2022-10-03T04:31:56;14.73;;;12.20;;
12962;SDS011;6546;49.882;8.666;2022-10-03T04:34:39;17.27;;;11.93;;
12962;SDS011;6546;49.882;8.666;2022-10-03T04:37:21;16.90;;;12.83;;
12962;SDS011;6546;49.882;8.666;2022-10-03T04:40:01;17.17;;;12.03;;
12962;SDS011;6546;49.882;8.666;2022-10-03T04:42:44;22.60;;;13.70;;
12962;SDS011;6546;49.882;8.666;2022-10-03T04:45:24;17.30;;;13.03;;
12962;SDS011;6546;49.882;8.666;2022-10-03T04:48:04;23.13;;;14.50;;
12962;SDS011;6546;49.882;8.666;2022-10-03T04:50:41;22.67;;;15.50;;
12962;SDS011;6546;49.882;8.666;2022-10-03T04:53:25;21.70;;;15.47;;
12962;SDS011;6546;49.882;8.666;2022-10-03T04:56:13;21.00;;;15.70;;
12962;SDS011;6546;49.882;8.666;2022-10-03T04:58:53;21.93;;;14.57;;
12962;SDS011;6546;49.882;8.666;2022-10-03T05:01:25;21.70;;;15.53;;
12962;SDS011;6546;49.882;8.666;2022-10-03T05:04:00;22.90;;;15.57;;
12962;SDS011;6546;49.882;8.666;2022-10-03T05:06:36;21.37;;;14.90;;
12962;SDS011;6546;49.882;8.666;2022-10-03T05:09:16;22.87;;;14.73;;
12962;SDS011;6546;49.882;8.666;2022-10-03T05:11:55;20.07;;;13.80;;
12962;SDS011;6546;49.882;8.666;2022-10-03T05:14:31;20.13;;;13.70;;
12962;SDS011;6546;49.882;8.666;2022-10-03T05:17:14;21.20;;;13.33;;
12962;SDS011;6546;49.882;8.666;2022-10-03T05:20:02;18.43;;;12.77;;
12962;SDS011;6546;49.882;8.666;2022-10-03T05:22:47;18.37;;;13.40;;
12962;SDS011;6546;49.882;8.666;2022-10-03T05:25:30;20.57;;;14.63;;
12962;SDS011;6546;49.882;8.666;2022-10-03T05:28:06;21.10;;;12.70;;
12962;SDS011;6546;49.882;8.666;2022-10-03T05:30:46;21.60;;;14.43;;
12962;SDS011;6546;49.882;8.666;2022-10-03T05:33:21;27.47;;;15.70;;
12962;SDS011;6546;49.882;8.666;2022-10-03T05:36:02;20.10;;;14.40;;
12962;SDS011;6546;49.882;8.666;2022-10-03T05:41:49;24.57;;;15.73;;
12962;SDS011;6546;49.882;8.666;2022-10-03T05:44:19;22.70;;;15.67;;
12962;SDS011;6546;49.882;8.666;2022-10-03T05:46:58;20.20;;;14.80;;
12962;SDS011;6546;49.882;8.666;2022-10-03T05:49:46;19.90;;;14.40;;
12962;SDS011;6546;49.882;8.666;2022-10-03T05:52:26;20.07;;;14.13;;
12962;SDS011;6546;49.882;8.666;2022-10-03T05:58:16;20.53;;;15.13;;
12962;SDS011;6546;49.882;8.666;2022-10-03T06:01:03;22.27;;;14.53;;
12962;SDS011;6546;49.882;8.666;2022-10-03T06:03:59;23.13;;;15.93;;
12962;SDS011;6546;49.882;8.666;2022-10-03T06:06:42;22.27;;;15.87;;
12962;SDS011;6546;49.882;8.666;2022-10-03T06:09:23;22.63;;;16.23;;
12962;SDS011;6546;49.882;8.666;2022-10-03T06:12:05;26.70;;;15.43;;
12962;SDS011;6546;49.882;8.666;2022-10-03T06:14:40;23.80;;;15.57;;
12962;SDS011;6546;49.882;8.666;2022-10-03T06:20:30;21.37;;;17.20;;
12962;SDS011;6546;49.882;8.666;2022-10-03T06:23:36;24.40;;;17.00;;
12962;SDS011;6546;49.882;8.666;2022-10-03T06:26:32;23.13;;;16.83;;
12962;SDS011;6546;49.882;8.666;2022-10-03T06:35:49;19.53;;;15.73;;
12962;SDS011;6546;49.882;8.666;2022-10-03T06:38:45;23.77;;;16.87;;
12962;SDS011;6546;49.882;8.666;2022-10-03T06:44:57;24.87;;;16.83;;
12962;SDS011;6546;49.882;8.666;2022-10-03T06:48:03;24.70;;;16.50;;
12962;SDS011;6546;49.882;8.666;2022-10-03T06:50:53;24.53;;;17.60;;
12962;SDS011;6546;49.882;8.666;2022-10-03T06:53:41;27.87;;;17.90;;
12962;SDS011;6546;49.882;8.666;2022-10-03T06:59:31;22.17;;;17.67;;
12962;SDS011;6546;49.882;8.666;2022-10-03T07:02:27;23.83;;;16.13;;
12962;SDS011;6546;49.882;8.666;2022-10-03T07:05:34;26.30;;;18.43;;
12962;SDS011;6546;49.882;8.666;2022-10-03T07:11:34;24.03;;;17.17;;
12962;SDS011;6546;49.882;8.666;2022-10-03T07:14:20;22.60;;;17.60;;
12962;SDS011;6546;49.882;8.666;2022-10-03T07:17:28;26.17;;;18.27;;
12962;SDS011;6546;49.882;8.666;2022-10-03T07:20:09;25.50;;;16.83;;
12962;SDS011;6546;49.882;8.666;2022-10-03T07:26:14;29.50;;;18.97;;
12962;SDS011;6546;49.882;8.666;2022-10-03T07:29:12;31.10;;;18.70;;
12962;SDS011;6546;49.882;8.666;2022-10-03T07:31:51;30.90;;;17.97;;
12962;SDS011;6546;49.882;8.666;2022-10-03T07:34:35;26.30;;;18.53;;
12962;SDS011;6546;49.882;8.666;2022-10-03T07:37:21;27.97;;;17.97;;
12962;SDS011;6546;49.882;8.666;2022-10-03T07:40:41;26.90;;;17.63;;
12962;SDS011;6546;49.882;8.666;2022-10-03T07:50:05;30.00;;;17.97;;
12962;SDS011;6546;49.882;8.666;2022-10-03T07:52:55;24.53;;;16.20;;
12962;SDS011;6546;49.882;8.666;2022-10-03T07:55:43;25.60;;;17.60;;
12962;SDS011;6546;49.882;8.666;2022-10-03T07:58:22;26.80;;;17.30;;
12962;SDS011;6546;49.882;8.666;2022-10-03T08:01:12;25.27;;;16.90;;
12962;SDS011;6546;49.882;8.666;2022-10-03T08:03:56;24.70;;;15.90;;
12962;SDS011;6546;49.882;8.666;2022-10-03T08:06:38;25.20;;;16.53;;
12962;SDS011;6546;49.882;8.666;2022-10-03T08:09:16;28.47;;;17.10;;
12962;SDS011;6546;49.882;8.666;2022-10-03T08:12:18;28.83;;;17.67;;
12962;SDS011;6546;49.882;8.666;2022-10-03T08:15:08;31.53;;;17.47;;
12962;SDS011;6546;49.882;8.666;2022-10-03T08:17:51;28.57;;;17.10;;
12962;SDS011;6546;49.882;8.666;2022-10-03T08:20:44;21.17;;;16.40;;
12962;SDS011;6546;49.882;8.666;2022-10-03T08:23:35;21.40;;;15.77;;
12962;SDS011;6546;49.882;8.666;2022-10-03T08:26:16;22.97;;;15.97;;
12962;SDS011;6546;49.882;8.666;2022-10-03T08:28:57;28.07;;;16.00;;
12962;SDS011;6546;49.882;8.666;2022-10-03T08:31:45;25.13;;;16.70;;
12962;SDS011;6546;49.882;8.666;2022-10-03T08:34:32;24.63;;;16.27;;
12962;SDS011;6546;49.882;8.666;2022-10-03T08:52:27;26.47;;;16.67;;
12962;SDS011;6546;49.882;8.666;2022-10-03T08:58:18;24.00;;;16.67;;
12962;SDS011;6546;49.882;8.666;2022-10-03T09:01:03;26.30;;;16.27;;
12962;SDS011;6546;49.882;8.666;2022-10-03T09:07:00;31.10;;;16.93;;
12962;SDS011;6546;49.882;8.666;2022-10-03T09:09:58;21.30;;;15.97;;
12962;SDS011;6546;49.882;8.666;2022-10-03T09:13:09;21.57;;;15.27;;
12962;SDS011;6546;49.882;8.666;2022-10-03T09:16:13;23.10;;;16.30;;
12962;SDS011;6546;49.882;8.666;2022-10-03T09:22:27;23.37;;;15.77;;
12962;SDS011;6546;49.882;8.666;2022-10-03T09:25:24;24.13;;;15.47;;
12962;SDS011;6546;49.882;8.666;2022-10-03T09:31:02;21.73;;;14.87;;
12962;SDS011;6546;49.882;8.666;2022-10-03T09:33:52;24.17;;;14.67;;
12962;SDS011;6546;49.882;8.666;2022-10-03T09:36:43;24.30;;;14.83;;
12962;SDS011;6546;49.882;8.666;2022-10-03T09:39:42;18.57;;;13.00;;
12962;SDS011;6546;49.882;8.666;2022-10-03T09:42:33;17.03;;;12.27;;
12962;SDS011;6546;49.882;8.666;2022-10-03T09:48:22;22.00;;;12.13;;
12962;SDS011;6546;49.882;8.666;2022-10-03T09:54:14;18.23;;;10.07;;
12962;SDS011;6546;49.882;8.666;2022-10-03T10:00:08;16.57;;;9.90;;
12962;SDS011;6546;49.882;8.666;2022-10-03T10:02:50;15.03;;;8.23;;
12962;SDS011;6546;49.882;8.666;2022-10-03T10:05:44;14.87;;;7.53;;
12962;SDS011;6546;49.882;8.666;2022-10-03T10:08:51;10.77;;;7.53;;
12962;SDS011;6546;49.882;8.666;2022-10-03T10:11:46;13.17;;;8.20;;
12962;SDS011;6546;49.882;8.666;2022-10-03T10:14:40;11.30;;;7.30;;
12962;SDS011;6546;49.882;8.666;2022-10-03T10:17:44;11.93;;;6.60;;
12962;SDS011;6546;49.882;8.666;2022-10-03T10:21:02;13.23;;;6.73;;
12962;SDS011;6546;49.882;8.666;2022-10-03T10:24:06;10.00;;;6.40;;
12962;SDS011;6546;49.882;8.666;2022-10-03T10:27:18;11.63;;;6.77;;
12962;SDS011;6546;49.882;8.666;2022-10-03T10:30:09;12.07;;;6.67;;
12962;SDS011;6546;49.882;8.666;2022-10-03T10:36:14;11.30;;;5.87;;
12962;SDS011;6546;49.882;8.666;2022-10-03T10:39:25;13.43;;;4.80;;
12962;SDS011;6546;49.882;8.666;2022-10-03T10:42:16;11.57;;;4.80;;
12962;SDS011;6546;49.882;8.666;2022-10-03T10:54:23;10.10;;;5.40;;
12962;SDS011;6546;49.882;8.666;2022-10-03T10:57:20;8.27;;;5.43;;
12962;SDS011;6546;49.882;8.666;2022-10-03T11:00:12;10.77;;;5.40;;
12962;SDS011;6546;49.882;8.666;2022-10-03T11:15:50;12.27;;;5.07;;
12962;SDS011;6546;49.882;8.666;2022-10-03T11:25:32;8.33;;;4.60;;
12962;SDS011;6546;49.882;8.666;2022-10-03T11:38:07;10.40;;;4.23;;
12962;SDS011;6546;49.882;8.666;2022-10-03T11:40:45;9.20;;;3.70;;
12962;SDS011;6546;49.882;8.666;2022-10-03T11:43:33;8.07;;;4.27;;
12962;SDS011;6546;49.882;8.666;2022-10-03T11:46:19;7.13;;;3.80;;
12962;SDS011;6546;49.882;8.666;2022-10-03T11:48:52;6.30;;;3.33;;
12962;SDS011;6546;49.882;8.666;2022-10-03T11:51:28;7.67;;;3.90;;
12962;SDS011;6546;49.882;8.666;2022-10-03T11:54:04;9.23;;;3.83;;
12962;SDS011;6546;49.882;8.666;2022-10-03T11:56:42;8.80;;;3.87;;
12962;SDS011;6546;49.882;8.666;2022-10-03T11:59:20;8.10;;;3.97;;
12962;SDS011;6546;49.882;8.666;2022-10-03T12:02:06;6.60;;;3.70;;
12962;SDS011;6546;49.882;8.666;2022-10-03T12:04:43;9.93;;;3.47;;
12962;SDS011;6546;49.882;8.666;2022-10-03T12:07:17;5.90;;;3.40;;
12962;SDS011;6546;49.882;8.666;2022-10-03T12:10:11;5.67;;;2.77;;
12962;SDS011;6546;49.882;8.666;2022-10-03T12:12:45;5.57;;;3.20;;
12962;SDS011;6546;49.882;8.666;2022-10-03T12:15:23;6.90;;;3.67;;
12962;SDS011;6546;49.882;8.666;2022-10-03T12:18:01;9.90;;;4.43;;
12962;SDS011;6546;49.882;8.666;2022-10-03T12:20:34;5.17;;;3.87;;
12962;SDS011;6546;49.882;8.666;2022-10-03T12:26:29;5.13;;;3.60;;
12962;SDS011;6546;49.882;8.666;2022-10-03T12:29:10;6.70;;;3.83;;
12962;SDS011;6546;49.882;8.666;2022-10-03T12:31:38;8.33;;;4.17;;
12962;SDS011;6546;49.882;8.666;2022-10-03T12:34:14;6.93;;;4.07;;
12962;SDS011;6546;49.882;8.666;2022-10-03T12:36:57;9.90;;;4.10;;
12962;SDS011;6546;49.882;8.666;2022-10-03T12:39:43;6.93;;;4.07;;
12962;SDS011;6546;49.882;8.666;2022-10-03T12:42:21;5.87;;;3.70;;
12962;SDS011;6546;49.882;8.666;2022-10-03T12:44:56;6.40;;;3.83;;
12962;SDS011;6546;49.882;8.666;2022-10-03T12:47:28;6.53;;;4.10;;
12962;SDS011;6546;49.882;8.666;2022-10-03T12:50:03;9.03;;;4.77;;
12962;SDS011;6546;49.882;8.666;2022-10-03T12:52:41;9.43;;;4.27;;
12962;SDS011;6546;49.882;8.666;2022-10-03T12:55:22;6.57;;;3.90;;
12962;SDS011;6546;49.882;8.666;2022-10-03T12:58:02;6.37;;;3.90;;
12962;SDS011;6546;49.882;8.666;2022-10-03T13:00:44;7.50;;;3.93;;
12962;SDS011;6546;49.882;8.666;2022-10-03T13:03:22;9.10;;;4.03;;
12962;SDS011;6546;49.882;8.666;2022-10-03T13:06:08;9.67;;;4.40;;
12962;SDS011;6546;49.882;8.666;2022-10-03T13:08:50;13.03;;;4.60;;
12962;SDS011;6546;49.882;8.666;2022-10-03T13:11:27;8.67;;;4.10;;
12962;SDS011;6546;49.882;8.666;2022-10-03T13:14:03;10.23;;;4.67;;
12962;SDS011;6546;49.882;8.666;2022-10-03T13:16:47;8.60;;;4.03;;
12962;SDS011;6546;49.882;8.666;2022-10-03T13:19:24;10.00;;;5.30;;
12962;SDS011;6546;49.882;8.666;2022-10-03T13:22:00;9.13;;;4.47;;
12962;SDS011;6546;49.882;8.666;2022-10-03T13:24:32;7.53;;;4.90;;
12962;SDS011;6546;49.882;8.666;2022-10-03T13:27:21;8.63;;;4.30;;
12962;SDS011;6546;49.882;8.666;2022-10-03T13:29:58;6.23;;;4.00;;
12962;SDS011;6546;49.882;8.666;2022-10-03T13:32:32;5.13;;;4.03;;
12962;SDS011;6546;49.882;8.666;2022-10-03T13:38:19;7.90;;;4.40;;
12962;SDS011;6546;49.882;8.666;2022-10-03T13:41:12;7.00;;;4.27;;
12962;SDS011;6546;49.882;8.666;2022-10-03T13:43:50;7.27;;;4.80;;
12962;SDS011;6546;49.882;8.666;2022-10-03T13:46:25;8.17;;;5.00;;
12962;SDS011;6546;49.882;8.666;2022-10-03T13:48:59;10.57;;;5.50;;
12962;SDS011;6546;49.882;8.666;2022-10-03T13:51:37;7.97;;;5.10;;
12962;SDS011;6546;49.882;8.666;2022-10-03T13:54:14;10.37;;;5.53;;
12962;SDS011;6546;49.882;8.666;2022-10-03T13:56:58;8.43;;;5.60;;
12962;SDS011;6546;49.882;8.666;2022-10-03T13:59:38;10.13;;;4.27;;
12962;SDS011;6546;49.882;8.666;2022-10-03T14:05:36;6.60;;;4.47;;
12962;SDS011;6546;49.882;8.666;2022-10-03T14:08:15;8.30;;;4.40;;
12962;SDS011;6546;49.882;8.666;2022-10-03T14:11:06;7.93;;;4.60;;
12962;SDS011;6546;49.882;8.666;2022-10-03T14:13:47;7.80;;;4.70;;
12962;SDS011;6546;49.882;8.666;2022-10-03T14:16:32;6.53;;;4.60;;
12962;SDS011;6546;49.882;8.666;2022-10-03T14:19:04;10.97;;;4.50;;
12962;SDS011;6546;49.882;8.666;2022-10-03T14:21:56;7.17;;;4.97;;
12962;SDS011;6546;49.882;8.666;2022-10-03T14:24:35;10.23;;;4.80;;
12962;SDS011;6546;49.882;8.666;2022-10-03T14:27:14;8.23;;;4.90;;
12962;SDS011;6546;49.882;8.666;2022-10-03T14:29:57;8.77;;;5.03;;
12962;SDS011;6546;49.882;8.666;2022-10-03T14:32:31;13.07;;;5.93;;
12962;SDS011;6546;49.882;8.666;2022-10-03T14:35:04;7.23;;;5.03;;
12962;SDS011;6546;49.882;8.666;2022-10-03T14:37:45;9.27;;;5.50;;
12962;SDS011;6546;49.882;8.666;2022-10-03T14:40:19;10.50;;;5.43;;
12962;SDS011;6546;49.882;8.666;2022-10-03T14:42:56;12.10;;;6.40;;
12962;SDS011;6546;49.882;8.666;2022-10-03T14:45:32;10.73;;;5.93;;
12962;SDS011;6546;49.882;8.666;2022-10-03T14:48:05;8.63;;;6.30;;
12962;SDS011;6546;49.882;8.666;2022-10-03T14:50:37;10.97;;;6.67;;
12962;SDS011;6546;49.882;8.666;2022-10-03T14:53:11;8.83;;;6.10;;
12962;SDS011;6546;49.882;8.666;2022-10-03T14:55:43;8.23;;;5.70;;
12962;SDS011;6546;49.882;8.666;2022-10-03T14:58:15;9.00;;;6.13;;
12962;SDS011;6546;49.882;8.666;2022-10-03T15:00:46;7.27;;;5.67;;
12962;SDS011;6546;49.882;8.666;2022-10-03T15:03:22;10.03;;;6.20;;
12962;SDS011;6546;49.882;8.666;2022-10-03T15:05:57;8.77;;;5.87;;
12962;SDS011;6546;49.882;8.666;2022-10-03T15:08:30;10.13;;;6.37;;
12962;SDS011;6546;49.882;8.666;2022-10-03T15:11:03;14.07;;;6.90;;
12962;SDS011;6546;49.882;8.666;2022-10-03T15:13:32;11.27;;;6.83;;
12962;SDS011;6546;49.882;8.666;2022-10-03T15:16:04;7.37;;;5.80;;
12962;SDS011;6546;49.882;8.666;2022-10-03T15:18:33;8.37;;;6.53;;
12962;SDS011;6546;49.882;8.666;2022-10-03T15:21:01;10.47;;;6.30;;
12962;SDS011;6546;49.882;8.666;2022-10-03T15:23:32;9.50;;;7.17;;
12962;SDS011;6546;49.882;8.666;2022-10-03T15:26:07;7.80;;;6.77;;
12962;SDS011;6546;49.882;8.666;2022-10-03T15:28:39;10.87;;;6.00;;
12962;SDS011;6546;49.882;8.666;2022-10-03T15:31:11;9.37;;;6.40;;
12962;SDS011;6546;49.882;8.666;2022-10-03T15:33:43;10.90;;;6.90;;
12962;SDS011;6546;49.882;8.666;2022-10-03T15:36:11;11.17;;;6.73;;
12962;SDS011;6546;49.882;8.666;2022-10-03T15:38:44;8.03;;;5.93;;
12962;SDS011;6546;49.882;8.666;2022-10-03T15:41:18;9.97;;;6.33;;
12962;SDS011;6546;49.882;8.666;2022-10-03T15:43:53;10.63;;;6.60;;
12962;SDS011;6546;49.882;8.666;2022-10-03T15:46:30;9.50;;;6.17;;
12962;SDS011;6546;49.882;8.666;2022-10-03T15:48:59;7.63;;;6.00;;
12962;SDS011;6546;49.882;8.666;2022-10-03T15:51:31;6.30;;;5.37;;
12962;SDS011;6546;49.882;8.666;2022-10-03T15:54:04;12.67;;;6.23;;
12962;SDS011;6546;49.882;8.666;2022-10-03T15:56:34;9.80;;;5.80;;
12962;SDS011;6546;49.882;8.666;2022-10-03T15:59:06;7.43;;;5.70;;
12962;SDS011;6546;49.882;8.666;2022-10-03T16:01:36;10.17;;;5.90;;
12962;SDS011;6546;49.882;8.666;2022-10-03T16:04:06;9.63;;;6.43;;
12962;SDS011;6546;49.882;8.666;2022-10-03T16:06:42;10.53;;;6.80;;
12962;SDS011;6546;49.882;8.666;2022-10-03T16:09:15;9.97;;;6.03;;
12962;SDS011;6546;49.882;8.666;2022-10-03T16:11:50;8.47;;;6.43;;
12962;SDS011;6546;49.882;8.666;2022-10-03T16:14:26;9.90;;;5.83;;
12962;SDS011;6546;49.882;8.666;2022-10-03T16:16:55;10.37;;;6.67;;
12962;SDS011;6546;49.882;8.666;2022-10-03T16:19:26;9.77;;;6.30;;
12962;SDS011;6546;49.882;8.666;2022-10-03T16:22:07;8.40;;;6.10;;
12962;SDS011;6546;49.882;8.666;2022-10-03T16:24:45;11.13;;;6.60;;
12962;SDS011;6546;49.882;8.666;2022-10-03T16:27:23;13.13;;;6.70;;
12962;SDS011;6546;49.882;8.666;2022-10-03T16:29:56;11.23;;;6.37;;
12962;SDS011;6546;49.882;8.666;2022-10-03T16:32:42;8.83;;;6.97;;
12962;SDS011;6546;49.882;8.666;2022-10-03T16:35:20;8.03;;;6.60;;
12962;SDS011;6546;49.882;8.666;2022-10-03T16:37:56;10.03;;;6.77;;
12962;SDS011;6546;49.882;8.666;2022-10-03T16:40:24;10.47;;;7.27;;
12962;SDS011;6546;49.882;8.666;2022-10-03T16:42:54;9.67;;;6.67;;
12962;SDS011;6546;49.882;8.666;2022-10-03T16:45:25;10.00;;;7.37;;
12962;SDS011;6546;49.882;8.666;2022-10-03T16:47:55;9.53;;;7.03;;
12962;SDS011;6546;49.882;8.666;2022-10-03T16:50:42;10.97;;;7.63;;
12962;SDS011;6546;49.882;8.666;2022-10-03T16:53:11;10.70;;;7.43;;
12962;SDS011;6546;49.882;8.666;2022-10-03T16:55:43;8.70;;;7.47;;
12962;SDS011;6546;49.882;8.666;2022-10-03T16:58:14;8.80;;;7.80;;
12962;SDS011;6546;49.882;8.666;2022-10-03T17:00:48;14.20;;;8.53;;
12962;SDS011;6546;49.882;8.666;2022-10-03T17:03:19;9.67;;;7.50;;
12962;SDS011;6546;49.882;8.666;2022-10-03T17:05:48;12.17;;;8.17;;
12962;SDS011;6546;49.882;8.666;2022-10-03T17:08:18;12.87;;;8.57;;
12962;SDS011;6546;49.882;8.666;2022-10-03T17:10:52;11.13;;;7.70;;
12962;SDS011;6546;49.882;8.666;2022-10-03T17:13:22;12.57;;;8.27;;
12962;SDS011;6546;49.882;8.666;2022-10-03T17:15:55;11.77;;;7.70;;
12962;SDS011;6546;49.882;8.666;2022-10-03T17:18:29;14.17;;;8.50;;
12962;SDS011;6546;49.882;8.666;2022-10-03T17:21:03;9.87;;;8.00;;
12962;SDS011;6546;49.882;8.666;2022-10-03T17:23:35;13.43;;;8.77;;
12962;SDS011;6546;49.882;8.666;2022-10-03T17:26:07;12.10;;;8.87;;
12962;SDS011;6546;49.882;8.666;2022-10-03T17:28:39;12.63;;;8.73;;
12962;SDS011;6546;49.882;8.666;2022-10-03T17:31:19;11.13;;;8.73;;
12962;SDS011;6546;49.882;8.666;2022-10-03T17:33:53;12.63;;;9.20;;
12962;SDS011;6546;49.882;8.666;2022-10-03T17:36:37;12.00;;;8.43;;
12962;SDS011;6546;49.882;8.666;2022-10-03T17:39:14;11.93;;;9.63;;
12962;SDS011;6546;49.882;8.666;2022-10-03T17:41:52;10.17;;;8.67;;
12962;SDS011;6546;49.882;8.666;2022-10-03T17:44:27;17.17;;;9.77;;
12962;SDS011;6546;49.882;8.666;2022-10-03T17:47:01;18.97;;;10.10;;
12962;SDS011;6546;49.882;8.666;2022-10-03T17:49:43;11.33;;;9.40;;
12962;SDS011;6546;49.882;8.666;2022-10-03T17:52:21;12.10;;;9.13;;
12962;SDS011;6546;49.882;8.666;2022-10-03T17:54:50;16.07;;;9.47;;
12962;SDS011;6546;49.882;8.666;2022-10-03T17:57:22;11.73;;;8.87;;
12962;SDS011;6546;49.882;8.666;2022-10-03T17:59:53;12.20;;;8.70;;
12962;SDS011;6546;49.882;8.666;2022-10-03T18:02:28;12.47;;;8.50;;
12962;SDS011;6546;49.882;8.666;2022-10-03T18:05:02;13.20;;;8.67;;
12962;SDS011;6546;49.882;8.666;2022-10-03T18:07:37;13.23;;;8.33;;
12962;SDS011;6546;49.882;8.666;2022-10-03T18:10:14;12.43;;;8.40;;
12962;SDS011;6546;49.882;8.666;2022-10-03T18:12:46;11.73;;;9.00;;
12962;SDS011;6546;49.882;8.666;2022-10-03T18:15:29;13.30;;;8.97;;
12962;SDS011;6546;49.882;8.666;2022-10-03T18:18:20;15.07;;;8.67;;
12962;SDS011;6546;49.882;8.666;2022-10-03T18:21:01;14.93;;;8.47;;
12962;SDS011;6546;49.882;8.666;2022-10-03T18:23:35;14.80;;;9.47;;
12962;SDS011;6546;49.882;8.666;2022-10-03T18:26:11;15.77;;;9.80;;
12962;SDS011;6546;49.882;8.666;2022-10-03T18:28:49;17.87;;;10.13;;
12962;SDS011;6546;49.882;8.666;2022-10-03T18:31:24;18.60;;;12.37;;
12962;SDS011;6546;49.882;8.666;2022-10-03T18:33:55;15.53;;;9.93;;
12962;SDS011;6546;49.882;8.666;2022-10-03T18:36:25;14.60;;;9.17;;
12962;SDS011;6546;49.882;8.666;2022-10-03T18:38:55;13.20;;;9.37;;
12962;SDS011;6546;49.882;8.666;2022-10-03T18:41:27;15.90;;;9.57;;
12962;SDS011;6546;49.882;8.666;2022-10-03T18:43:56;13.40;;;9.27;;
12962;SDS011;6546;49.882;8.666;2022-10-03T18:46:26;13.23;;;8.93;;